createdAt,value
2019-05-03T00:04:31.597Z,9.77
2019-05-03T00:09:39.120Z,10.13
2019-05-03T00:14:48.392Z,11.23
2019-05-03T00:19:55.713Z,8.20
2019-05-03T00:25:08.102Z,10.63
2019-05-03T00:30:12.685Z,10.87
2019-05-03T00:35:26.292Z,7.50
2019-05-03T00:40:33.401Z,8.30
2019-05-03T00:45:42.228Z,10.57
2019-05-03T00:50:51.640Z,8.20
2019-05-03T00:55:58.378Z,9.30
2019-05-03T01:01:05.935Z,13.03
2019-05-03T01:06:13.249Z,11.88
2019-05-03T01:11:22.238Z,8.47
2019-05-03T01:16:31.515Z,16.37
2019-05-03T01:21:38.679Z,10.03
2019-05-03T01:26:46.181Z,15.17
2019-05-03T01:31:53.611Z,13.00
2019-05-03T01:37:02.592Z,11.60
2019-05-03T01:42:11.875Z,8.23
2019-05-03T01:47:26.179Z,12.35
2019-05-03T01:52:36.995Z,18.47
2019-05-03T01:57:44.319Z,12.47
2019-05-03T02:03:12.274Z,11.77
2019-05-03T02:08:19.216Z,16.23
2019-05-03T02:13:26.323Z,12.10
2019-05-03T02:18:35.035Z,16.00
2019-05-03T02:23:43.322Z,16.03
2019-05-03T02:28:52.599Z,9.90
2019-05-03T02:33:59.270Z,9.03
2019-05-03T02:39:13.332Z,12.90
2019-05-03T02:44:21.917Z,10.63
2019-05-03T02:49:47.629Z,10.40
2019-05-03T02:54:55.393Z,13.87
2019-05-03T03:00:05.092Z,9.77
2019-05-03T03:05:16.308Z,13.13
2019-05-03T03:10:22.090Z,8.90
2019-05-03T03:15:32.504Z,13.10
2019-05-03T03:20:40.876Z,12.93
2019-05-03T03:25:50.959Z,12.80
2019-05-03T03:31:29.260Z,12.97
2019-05-03T03:36:58.781Z,15.70
2019-05-03T03:41:57.137Z,13.60
2019-05-03T03:47:06.310Z,16.82
2019-05-03T03:52:16.128Z,15.68
2019-05-03T03:57:26.809Z,11.30
2019-05-03T04:02:35.348Z,13.80
2019-05-03T04:07:46.165Z,9.07
2019-05-03T04:12:52.635Z,11.40
2019-05-03T04:18:17.430Z,17.07
2019-05-03T04:23:26.421Z,9.20
2019-05-03T04:28:36.161Z,20.83
2019-05-03T04:33:45.089Z,13.07
2019-05-03T04:38:56.057Z,11.30
2019-05-03T04:44:01.926Z,10.00
2019-05-03T04:49:09.076Z,10.17
2019-05-03T04:54:28.914Z,16.83
2019-05-03T04:59:37.579Z,12.80
2019-05-03T05:04:46.311Z,8.53
2019-05-03T05:09:56.040Z,9.03
2019-05-03T05:15:05.117Z,9.17
2019-05-03T05:20:21.314Z,12.40
2019-05-03T05:25:30.392Z,10.00
2019-05-03T05:30:37.824Z,16.00
2019-05-03T05:35:44.967Z,6.78
2019-05-03T05:40:52.164Z,7.30
2019-05-03T05:45:59.330Z,9.18
2019-05-03T05:51:06.581Z,14.23
2019-05-03T05:56:36.453Z,16.67
2019-05-03T06:01:52.365Z,15.60
2019-05-03T06:07:17.510Z,9.23
2019-05-03T06:12:30.561Z,8.83
2019-05-03T06:17:45.077Z,8.90
2019-05-03T06:23:05.311Z,13.33
2019-05-03T06:28:22.518Z,9.23
2019-05-03T06:33:29.642Z,6.80
2019-05-03T06:38:37.113Z,3.53
2019-05-03T06:43:48.400Z,10.80
2019-05-03T06:48:54.313Z,7.63
2019-05-03T06:54:01.898Z,7.90
2019-05-03T06:59:14.380Z,7.37
2019-05-03T07:04:25.543Z,5.40
2019-05-03T07:09:44.468Z,7.00
2019-05-03T07:14:51.750Z,7.63
2019-05-03T07:19:58.868Z,7.33
2019-05-03T07:25:06.367Z,5.57
2019-05-03T07:30:15.525Z,7.80
2019-05-03T07:35:22.356Z,10.90
2019-05-03T07:40:29.488Z,16.87
2019-05-03T07:45:36.478Z,6.20
2019-05-03T07:50:44.724Z,2.00
2019-05-03T07:56:00.765Z,3.50
2019-05-03T08:01:11.642Z,1.13
2019-05-03T08:06:18.845Z,2.30
2019-05-03T08:11:25.929Z,26.73
2019-05-03T08:16:35.061Z,15.97
2019-05-03T08:21:41.925Z,5.83
2019-05-03T08:26:50.045Z,78.80
2019-05-03T08:32:06.898Z,27.20
2019-05-03T08:37:19.948Z,11.75
2019-05-03T08:42:28.159Z,2.27
2019-05-03T08:47:35.238Z,1.80
2019-05-03T08:52:44.642Z,1.23
2019-05-03T08:57:54.952Z,2.70
2019-05-03T09:03:01.290Z,2.50
2019-05-03T09:08:08.291Z,4.30
2019-05-03T09:13:17.471Z,3.02
2019-05-03T09:18:25.854Z,2.67
2019-05-03T09:23:35.668Z,2.50
2019-05-03T09:28:45.223Z,5.17
2019-05-03T09:33:51.662Z,1.13
2019-05-03T09:38:58.858Z,2.70
2019-05-03T09:44:06.206Z,4.03
2019-05-03T09:49:16.244Z,2.35
2019-05-03T09:54:27.315Z,1.30
2019-05-03T09:59:35.036Z,1.83
2019-05-03T10:04:44.490Z,3.30
2019-05-03T10:09:51.038Z,2.03
2019-05-03T10:14:58.171Z,3.23
2019-05-03T10:20:07.739Z,2.67
2019-05-03T10:25:18.988Z,11.03
2019-05-03T10:30:27.734Z,3.40
2019-05-03T10:35:35.495Z,2.23
2019-05-03T10:40:45.090Z,1.37
2019-05-03T10:45:51.388Z,2.70
2019-05-03T10:50:59.729Z,2.17
2019-05-03T10:56:22.669Z,1.23
2019-05-03T11:01:35.874Z,2.70
2019-05-03T11:06:45.516Z,1.20
2019-05-03T11:11:52.287Z,4.47
2019-05-03T11:17:00.647Z,19.37
2019-05-03T11:22:07.851Z,2.00
2019-05-03T11:27:24.696Z,1.87
2019-05-03T11:32:56.380Z,1.60
2019-05-03T11:38:16.693Z,2.23
2019-05-03T11:43:24.718Z,1.97
2019-05-03T11:48:34.746Z,2.30
2019-05-03T11:53:41.387Z,1.50
2019-05-03T11:58:48.718Z,14.07
2019-05-03T12:03:59.909Z,12.30
2019-05-03T12:09:07.801Z,55.90
2019-05-03T12:14:16.121Z,6.13
2019-05-03T12:19:30.043Z,2.77
2019-05-03T12:24:32.620Z,7.33
2019-05-03T12:29:40.218Z,6.43
2019-05-03T12:34:47.358Z,3.17
2019-05-03T12:39:54.872Z,2.17
2019-05-03T12:45:02.153Z,5.07
2019-05-03T12:50:09.569Z,1.10
2019-05-03T12:55:16.769Z,4.47
2019-05-03T13:00:48.680Z,2.63
2019-05-03T13:05:55.862Z,1.50
2019-05-03T13:11:05.044Z,5.87
2019-05-03T13:16:15.370Z,2.77
2019-05-03T13:21:22.573Z,6.28
2019-05-03T13:26:29.691Z,3.57
2019-05-03T13:31:37.066Z,4.60
2019-05-03T13:36:45.658Z,6.97
2019-05-03T13:41:54.852Z,3.97
2019-05-03T13:47:01.682Z,3.37
2019-05-03T13:52:08.806Z,2.47
2019-05-03T13:57:15.937Z,3.30
2019-05-03T14:02:23.069Z,5.87
2019-05-03T14:07:30.260Z,8.93
2019-05-03T14:12:37.360Z,5.00
2019-05-03T14:17:44.580Z,18.33
2019-05-03T14:22:52.509Z,9.27
2019-05-03T14:27:59.774Z,53.70
2019-05-03T14:33:07.010Z,17.77
2019-05-03T14:38:15.128Z,6.57
2019-05-03T14:43:24.709Z,4.75
2019-05-03T14:48:31.337Z,4.73
2019-05-03T14:53:38.463Z,6.47
2019-05-03T14:59:03.079Z,8.50
2019-05-03T15:04:10.448Z,3.05
2019-05-03T15:09:19.121Z,3.17
2019-05-03T15:14:26.485Z,4.30
2019-05-03T15:19:34.880Z,2.53
2019-05-03T15:24:42.248Z,2.00
2019-05-03T15:29:49.515Z,4.80
2019-05-03T15:34:57.592Z,2.27
2019-05-03T15:40:06.176Z,2.03
2019-05-03T15:45:51.149Z,1.53
2019-05-03T15:50:58.816Z,4.57
2019-05-03T15:56:06.044Z,5.27
2019-05-03T16:01:15.171Z,8.93
2019-05-03T16:06:21.986Z,5.75
2019-05-03T16:11:29.097Z,7.40
2019-05-03T16:16:36.276Z,9.40
2019-05-03T16:21:45.300Z,4.93
2019-05-03T16:27:24.817Z,5.23
2019-05-03T16:32:32.194Z,6.60
2019-05-03T16:37:39.353Z,6.07
2019-05-03T16:42:46.571Z,3.40
2019-05-03T16:47:53.661Z,11.33
2019-05-03T16:53:00.870Z,4.60
2019-05-03T16:58:08.154Z,3.63
2019-05-03T17:03:17.229Z,5.90
2019-05-03T17:08:56.654Z,9.07
2019-05-03T17:14:02.455Z,5.50
2019-05-03T17:19:11.165Z,6.47
2019-05-03T17:24:18.883Z,10.40
2019-05-03T17:29:26.215Z,10.17
2019-05-03T17:34:34.662Z,12.10
2019-05-03T17:40:06.841Z,23.40
2019-05-03T17:45:16.139Z,13.58
2019-05-03T17:50:23.587Z,10.37
2019-05-03T17:55:58.555Z,14.90
2019-05-03T18:01:16.943Z,6.73
2019-05-03T18:06:27.144Z,8.25
2019-05-03T18:11:38.732Z,12.57
2019-05-03T18:16:46.527Z,35.90
2019-05-03T18:21:55.328Z,70.03
2019-05-03T18:27:02.517Z,149.13
2019-05-03T18:32:09.765Z,110.23
2019-05-03T18:37:16.850Z,59.10
2019-05-03T18:42:30.911Z,53.57
2019-05-03T18:47:38.109Z,55.37
2019-05-03T18:52:45.220Z,29.37
2019-05-03T18:57:52.439Z,27.50
2019-05-03T19:02:59.730Z,13.83
2019-05-03T19:08:31.678Z,17.83
2019-05-03T19:13:44.834Z,10.63
2019-05-03T19:18:52.287Z,7.80
2019-05-03T19:23:59.418Z,14.07
2019-05-03T19:29:06.733Z,12.57
2019-05-03T19:34:15.452Z,15.18
2019-05-03T19:39:22.918Z,23.47
2019-05-03T19:44:31.764Z,41.48
2019-05-03T19:49:38.890Z,92.30
2019-05-03T19:54:46.097Z,135.97
2019-05-03T19:59:56.741Z,113.17
2019-05-03T20:05:21.053Z,58.23
2019-05-03T20:10:29.226Z,58.13
2019-05-03T20:15:36.344Z,25.83
2019-05-03T20:20:44.672Z,18.90
2019-05-03T20:25:51.925Z,12.80
2019-05-03T20:30:59.038Z,8.83
2019-05-03T20:36:06.299Z,10.47
2019-05-03T20:41:14.838Z,10.47
2019-05-03T20:46:32.915Z,10.73
2019-05-03T20:51:40.054Z,15.07
2019-05-03T20:56:48.360Z,10.70
2019-05-03T21:01:55.790Z,14.83
2019-05-03T21:07:04.701Z,11.50
2019-05-03T21:12:12.104Z,10.60
2019-05-03T21:17:30.263Z,6.33
2019-05-03T21:22:44.329Z,8.13
2019-05-03T21:27:52.007Z,8.87
2019-05-03T21:32:59.081Z,7.30
2019-05-03T21:38:06.170Z,24.97
2019-05-03T21:43:15.158Z,48.73
2019-05-03T21:48:26.236Z,54.20
2019-05-03T21:53:34.473Z,61.93
2019-05-03T21:58:42.280Z,34.47
2019-05-03T22:03:49.272Z,11.17
2019-05-03T22:08:58.388Z,10.30
2019-05-03T22:14:09.555Z,10.43
2019-05-03T22:19:25.060Z,15.28
2019-05-03T22:24:36.937Z,9.13
2019-05-03T22:29:44.748Z,10.67
2019-05-03T22:34:52.070Z,7.30
2019-05-03T22:39:59.160Z,3.53
2019-05-03T22:45:06.774Z,9.37
2019-05-03T22:50:14.940Z,9.75
2019-05-03T22:55:24.639Z,9.33
2019-05-03T23:00:31.535Z,10.37
2019-05-03T23:05:38.594Z,11.40
2019-05-03T23:10:49.276Z,8.23
2019-05-03T23:15:57.985Z,5.93
2019-05-03T23:21:15.204Z,7.40
2019-05-03T23:26:22.606Z,7.03
2019-05-03T23:31:29.772Z,8.05
2019-05-03T23:36:37.458Z,4.50
2019-05-03T23:41:44.530Z,6.63
2019-05-03T23:47:14.588Z,7.30
2019-05-03T23:52:35.592Z,6.20
2019-05-03T23:57:44.645Z,8.43
